createdAt,value
2023-04-08T00:03:41.152Z,11.63
2023-04-08T00:08:44.625Z,10.33
2023-04-08T00:13:47.814Z,9.34
2023-04-08T00:18:51.693Z,9.46
2023-04-08T00:23:55.764Z,11.48
2023-04-08T00:28:59.075Z,12.74
2023-04-08T00:34:02.488Z,13.54
2023-04-08T00:39:07.091Z,13.29
2023-04-08T00:44:10.238Z,11.43
2023-04-08T00:49:13.354Z,10.18
2023-04-08T00:54:16.483Z,9.29
2023-04-08T00:59:19.785Z,8.59
2023-04-08T01:04:43.565Z,8.92
2023-04-08T01:09:55.480Z,11.14
2023-04-08T01:15:06.748Z,12.27
2023-04-08T01:20:11.639Z,12.93
2023-04-08T01:25:23.792Z,12.53
2023-04-08T01:30:30.708Z,10.65
2023-04-08T01:35:35.848Z,9.39
2023-04-08T01:40:41.175Z,8.50
2023-04-08T01:45:47.562Z,7.80
2023-04-08T01:50:52.246Z,8.12
2023-04-08T01:56:15.991Z,10.21
2023-04-08T02:01:23.918Z,11.49
2023-04-08T02:06:29.544Z,12.19
2023-04-08T02:11:32.661Z,11.89
2023-04-08T02:16:38.762Z,10.02
2023-04-08T02:21:50.929Z,8.72
2023-04-08T02:26:56.974Z,7.82
2023-04-08T02:32:04.322Z,7.07
2023-04-08T02:37:09.547Z,7.28
2023-04-08T02:42:12.691Z,9.38
2023-04-08T02:47:15.998Z,10.66
2023-04-08T02:52:19.908Z,11.46
2023-04-08T02:57:22.934Z,11.24
2023-04-08T03:02:26.408Z,9.33
2023-04-08T03:07:29.653Z,8.02
2023-04-08T03:12:33.266Z,7.15
2023-04-08T03:17:36.419Z,6.48
2023-04-08T03:22:39.618Z,6.82
2023-04-08T03:27:42.694Z,9.08
2023-04-08T03:32:46.280Z,10.44
2023-04-08T03:37:49.926Z,11.19
2023-04-08T03:42:52.955Z,10.85
2023-04-08T03:47:56.155Z,8.77
2023-04-08T03:52:59.251Z,7.38
2023-04-08T03:58:02.359Z,6.46
2023-04-08T04:03:05.557Z,6.62
2023-04-08T04:08:09.793Z,8.62
2023-04-08T04:13:13.019Z,9.87
2023-04-08T04:18:16.494Z,10.67
2023-04-08T04:23:19.635Z,10.40
2023-04-08T04:28:22.728Z,8.48
2023-04-08T04:33:25.934Z,7.16
2023-04-08T04:38:29.077Z,6.28
2023-04-08T04:43:32.248Z,5.71
2023-04-08T04:48:36.317Z,6.26
2023-04-08T04:53:39.282Z,8.52
2023-04-08T04:58:42.465Z,9.91
2023-04-08T05:03:45.729Z,10.83
2023-04-08T05:08:49.210Z,10.79
2023-04-08T05:13:52.744Z,9.02
2023-04-08T05:18:56.054Z,7.87
2023-04-08T05:23:59.261Z,7.14
2023-04-08T05:29:02.368Z,6.62
2023-04-08T05:34:05.405Z,6.20
2023-04-08T05:39:08.505Z,6.79
2023-04-08T05:44:12.929Z,9.24
2023-04-08T05:49:17.457Z,10.82
2023-04-08T05:54:20.695Z,11.75
2023-04-08T05:59:23.877Z,12.35
2023-04-08T06:04:27.134Z,12.00
2023-04-08T06:09:30.588Z,10.20
2023-04-08T06:14:33.691Z,9.07
2023-04-08T06:19:36.801Z,8.33
2023-04-08T06:24:40.315Z,7.92
2023-04-08T06:29:43.745Z,8.55
2023-04-08T06:34:46.837Z,10.94
2023-04-08T06:39:50.257Z,12.39
2023-04-08T06:44:53.570Z,13.08
2023-04-08T06:49:57.418Z,12.70
2023-04-08T06:55:00.498Z,10.94
2023-04-08T07:00:04.622Z,9.87
2023-04-08T07:05:08.260Z,9.28
2023-04-08T07:10:11.659Z,8.91
2023-04-08T07:15:14.665Z,8.76
2023-04-08T07:20:18.603Z,10.23
2023-04-08T07:25:21.924Z,12.25
2023-04-08T07:30:25.049Z,12.75
2023-04-08T07:35:28.820Z,11.47
2023-04-08T07:40:32.142Z,10.62
2023-04-08T07:45:35.866Z,10.19
2023-04-08T07:51:08.936Z,10.69
2023-04-08T07:56:05.676Z,12.92
2023-04-08T08:01:23.724Z,13.37
2023-04-08T08:06:27.922Z,12.00
2023-04-08T08:11:31.548Z,11.23
2023-04-08T08:16:34.676Z,10.79
2023-04-08T08:21:39.747Z,10.48
2023-04-08T08:26:45.361Z,10.27
2023-04-08T08:31:48.895Z,10.20
2023-04-08T08:36:53.317Z,10.20
2023-04-08T08:41:57.149Z,10.82
2023-04-08T08:47:00.918Z,13.23
2023-04-08T08:52:04.069Z,14.07
2023-04-08T08:57:18.924Z,12.97
2023-04-08T09:02:32.372Z,12.31
2023-04-08T09:07:40.730Z,12.06
2023-04-08T09:12:55.982Z,12.01
2023-04-08T09:17:59.082Z,12.03
2023-04-08T09:23:03.197Z,12.04
2023-04-08T09:28:21.355Z,12.18
2023-04-08T09:33:32.125Z,12.20
2023-04-08T09:38:35.202Z,11.92
2023-04-08T09:43:49.608Z,11.80
2023-04-08T09:49:10.198Z,11.87
2023-04-08T09:54:19.037Z,11.99
2023-04-08T09:59:28.265Z,12.02
2023-04-08T10:04:38.435Z,11.93
2023-04-08T10:09:43.382Z,11.88
2023-04-08T10:15:32.095Z,12.01
2023-04-08T10:20:36.373Z,12.32
2023-04-08T10:25:48.062Z,12.55
2023-04-08T10:30:52.863Z,12.88
2023-04-08T10:36:11.784Z,13.26
2023-04-08T10:41:24.776Z,13.28
2023-04-08T10:46:28.416Z,13.33
2023-04-08T10:51:33.817Z,13.51
2023-04-08T10:56:53.758Z,13.72
2023-04-08T11:01:57.607Z,13.94
2023-04-08T11:07:06.534Z,14.19
2023-04-08T11:12:09.661Z,14.71
2023-04-08T11:17:16.529Z,15.13
2023-04-08T11:22:21.207Z,15.53
2023-04-08T11:27:26.118Z,16.01
2023-04-08T11:32:30.339Z,16.34
2023-04-08T11:37:42.805Z,16.70
2023-04-08T11:42:47.130Z,17.08
2023-04-08T11:47:50.558Z,17.43
2023-04-08T11:52:54.038Z,17.86
2023-04-08T11:58:04.378Z,18.05
2023-04-08T12:03:08.419Z,18.09
2023-04-08T12:08:11.683Z,18.24
2023-04-08T12:13:14.768Z,18.61
2023-04-08T12:18:17.806Z,18.84
2023-04-08T12:23:20.878Z,18.50
2023-04-08T12:28:24.090Z,18.24
2023-04-08T12:33:27.701Z,18.16
2023-04-08T12:38:30.849Z,18.37
2023-04-08T12:43:34.739Z,18.77
2023-04-08T12:48:38.004Z,18.94
2023-04-08T12:53:41.154Z,18.97
2023-04-08T12:58:44.261Z,19.41
2023-04-08T13:03:48.372Z,20.02
2023-04-08T13:08:51.807Z,20.50
2023-04-08T13:13:55.277Z,20.69
2023-04-08T13:18:58.434Z,20.78
2023-04-08T13:24:01.636Z,21.12
2023-04-08T13:29:04.974Z,21.49
2023-04-08T13:34:08.390Z,21.88
2023-04-08T13:39:11.463Z,22.18
2023-04-08T13:44:15.621Z,22.42
2023-04-08T13:49:18.705Z,22.39
2023-04-08T13:54:21.908Z,21.58
2023-04-08T13:59:25.010Z,20.60
2023-04-08T14:04:28.230Z,19.95
2023-04-08T14:09:31.573Z,19.69
2023-04-08T14:14:34.737Z,19.51
2023-04-08T14:19:37.845Z,19.63
2023-04-08T14:24:40.958Z,20.18
2023-04-08T14:29:44.081Z,19.94
2023-04-08T14:34:47.781Z,19.30
2023-04-08T14:39:50.899Z,19.14
2023-04-08T14:44:53.999Z,19.11
2023-04-08T14:50:00.192Z,19.07
2023-04-08T14:55:03.492Z,19.03
2023-04-08T15:00:10.034Z,18.93
2023-04-08T15:05:13.075Z,18.75
2023-04-08T15:10:16.400Z,18.87
2023-04-08T15:15:19.591Z,19.06
2023-04-08T15:20:22.908Z,19.14
2023-04-08T15:25:26.106Z,18.79
2023-04-08T15:30:35.581Z,18.38
2023-04-08T15:35:39.510Z,18.22
2023-04-08T15:40:43.995Z,18.19
2023-04-08T15:45:48.485Z,18.17
2023-04-08T15:50:52.470Z,18.17
2023-04-08T15:55:56.536Z,18.24
2023-04-08T16:00:59.632Z,18.20
2023-04-08T16:06:03.253Z,18.24
2023-04-08T16:11:08.262Z,18.27
2023-04-08T16:16:12.515Z,18.17
2023-04-08T16:21:15.754Z,17.99
2023-04-08T16:26:19.157Z,17.77
2023-04-08T16:31:22.558Z,17.74
2023-04-08T16:36:25.900Z,17.79
2023-04-08T16:41:29.232Z,17.85
2023-04-08T16:46:32.408Z,17.87
2023-04-08T16:51:35.841Z,17.97
2023-04-08T16:56:44.517Z,18.11
2023-04-08T17:01:48.428Z,17.96
2023-04-08T17:06:52.512Z,17.63
2023-04-08T17:11:56.891Z,17.26
2023-04-08T17:17:00.153Z,16.85
2023-04-08T17:22:03.265Z,16.42
2023-04-08T17:27:06.364Z,16.02
2023-04-08T17:32:09.805Z,15.69
2023-04-08T17:37:13.098Z,15.42
2023-04-08T17:42:17.161Z,15.17
2023-04-08T17:47:21.249Z,14.84
2023-04-08T17:52:24.394Z,14.38
2023-04-08T17:57:27.467Z,13.98
2023-04-08T18:02:31.110Z,13.57
2023-04-08T18:07:36.301Z,13.20
2023-04-08T18:12:39.442Z,12.89
2023-04-08T18:17:45.142Z,12.66
2023-04-08T18:22:51.184Z,12.47
2023-04-08T18:27:54.295Z,12.31
2023-04-08T18:32:57.599Z,12.12
2023-04-08T18:38:01.031Z,11.89
2023-04-08T18:43:05.178Z,11.71
2023-04-08T18:48:08.872Z,11.53
2023-04-08T18:53:12.621Z,11.33
2023-04-08T18:58:15.799Z,11.17
2023-04-08T19:03:19.476Z,11.07
2023-04-08T19:08:22.946Z,10.97
2023-04-08T19:13:26.367Z,10.91
2023-04-08T19:18:29.447Z,10.79
2023-04-08T19:23:32.669Z,11.41
2023-04-08T19:28:36.474Z,13.65
2023-04-08T19:33:39.585Z,14.93
2023-04-08T19:38:42.826Z,14.46
2023-04-08T19:43:47.232Z,12.87
2023-04-08T19:48:50.455Z,11.85
2023-04-08T19:53:53.959Z,11.21
2023-04-08T19:58:57.777Z,10.76
2023-04-08T20:04:01.039Z,10.43
2023-04-08T20:09:05.869Z,10.18
2023-04-08T20:14:09.153Z,9.98
2023-04-08T20:19:12.187Z,9.84
2023-04-08T20:24:16.589Z,10.56
2023-04-08T20:29:20.022Z,12.89
2023-04-08T20:34:23.231Z,14.25
2023-04-08T20:39:31.133Z,14.27
2023-04-08T20:44:34.261Z,12.64
2023-04-08T20:49:41.239Z,11.66
2023-04-08T20:54:44.349Z,11.06
2023-04-08T20:59:47.583Z,10.65
2023-04-08T21:04:50.662Z,10.37
2023-04-08T21:09:53.870Z,10.16
2023-04-08T21:14:57.071Z,9.95
2023-04-08T21:20:00.512Z,10.60
2023-04-08T21:25:04.633Z,12.95
2023-04-08T21:30:08.730Z,14.44
2023-04-08T21:35:11.898Z,14.53
2023-04-08T21:40:15.167Z,12.92
2023-04-08T21:45:19.393Z,11.86
2023-04-08T21:50:22.505Z,11.17
2023-04-08T21:55:26.040Z,10.69
2023-04-08T22:00:30.343Z,10.35
2023-04-08T22:05:34.010Z,10.07
2023-04-08T22:10:38.000Z,10.79
2023-04-08T22:15:41.430Z,13.20
2023-04-08T22:20:44.642Z,14.33
2023-04-08T22:25:51.954Z,14.26
2023-04-08T22:30:55.202Z,12.49
2023-04-08T22:35:58.481Z,11.38
2023-04-08T22:41:01.866Z,10.68
2023-04-08T22:46:05.013Z,10.14
2023-04-08T22:51:08.737Z,9.73
2023-04-08T22:56:11.910Z,10.25
2023-04-08T23:01:18.014Z,12.43
2023-04-08T23:06:21.387Z,13.59
2023-04-08T23:11:24.505Z,14.20
2023-04-08T23:16:27.671Z,13.06
2023-04-08T23:21:31.460Z,11.35
2023-04-08T23:26:34.736Z,10.48
2023-04-08T23:31:37.808Z,9.93
2023-04-08T23:36:41.257Z,9.43
2023-04-08T23:41:44.385Z,9.72
2023-04-08T23:46:47.701Z,11.82
2023-04-08T23:51:50.890Z,12.97
2023-04-08T23:56:53.988Z,13.55
